LFSI 221500Z AUTO 23009KT CAVOK 12/03 Q1027

ElémentsDécodage
LFSI Station météo située sur l'aérodrome de SAINT-DIZIER Robinson
221500Z émis le 22 du mois à 15h00 UTC
AUTO Bulletin édité par un automate
23009KT vent du 230°, 09 noeuds
CAVOK Ceiling And Visibility OK
- Visibilité de 10 Km ou plus
- Pas de nuage au-dessous de 1500m ou au-dessous de l'altitude minimale du secteur la plus élevée (si>1500m) et absence de CB
- pas de temps présent significatif
12/03 température 12°C, point de rosée 03°C
 soit une humidité relative de 54%
Q1027 la pression au niveau de la mer (QNH) est de 1027 hPa